Terminal Aerodrome Forecast
Issued by NWS

Home | Current Version | Previous Version | Text Only | Print | Product List | Glossary On
Versions: 1 2 3 4 5 6 7 8 9 10 11 12 13 14 15 16 17 18 19 20 21 22 23 24 25 26
056
FTUS43 KDLH 310539
TAFHYR
TAF
KHYR 310539Z 3106/0106 04004KT P6SM SCT035 BKN100
     FM311000 12007KT P6SM VCSH SCT015 BKN060
      TEMPO 3110/3113 6SM -TSRA BR SCT015CB OVC050
     FM311700 14009G15KT 6SM -TSRA BR BKN020CB OVC050
     FM311900 15008G16KT 4SM TSRA BR SCT005 OVC020CB
     FM010100 15004KT 6SM BR SCT015 OVC040=

USA.gov is the U.S. government's official web portal to all federal, state and local government web resources and services.